sensor_id;sensor_type;location;lat;lon;timestamp;pressure;altitude;pressure_sealevel;temperature;humidity
11605;BME280;5858;43.076;25.626;2023-04-19T00:00:43;98829.91;;;11.29;100.00
11605;BME280;5858;43.076;25.626;2023-04-19T00:03:12;98778.50;;;10.92;100.00
11605;BME280;5858;43.076;25.626;2023-04-19T00:05:40;98838.31;;;11.13;100.00
11605;BME280;5858;43.076;25.626;2023-04-19T00:08:07;98799.81;;;11.20;100.00
11605;BME280;5858;43.076;25.626;2023-04-19T00:10:33;98841.31;;;11.38;100.00
11605;BME280;5858;43.076;25.626;2023-04-19T00:13:02;98853.41;;;11.33;100.00
11605;BME280;5858;43.076;25.626;2023-04-19T00:15:29;98863.41;;;11.53;100.00
11605;BME280;5858;43.076;25.626;2023-04-19T00:17:56;98859.91;;;11.52;100.00
11605;BME280;5858;43.076;25.626;2023-04-19T00:20:24;98749.59;;;10.81;100.00
11605;BME280;5858;43.076;25.626;2023-04-19T00:22:51;98813.78;;;11.09;100.00
11605;BME280;5858;43.076;25.626;2023-04-19T00:25:18;98848.72;;;11.35;100.00
11605;BME280;5858;43.076;25.626;2023-04-19T00:27:45;98707.66;;;10.47;100.00
11605;BME280;5858;43.076;25.626;2023-04-19T00:30:12;98800.13;;;10.97;100.00
11605;BME280;5858;43.076;25.626;2023-04-19T00:32:40;98795.84;;;11.03;100.00
11605;BME280;5858;43.076;25.626;2023-04-19T00:35:07;98827.56;;;11.06;100.00
11605;BME280;5858;43.076;25.626;2023-04-19T00:37:36;98702.88;;;10.15;100.00
11605;BME280;5858;43.076;25.626;2023-04-19T00:40:03;98641.84;;;9.90;100.00
11605;BME280;5858;43.076;25.626;2023-04-19T00:42:31;98818.56;;;10.86;100.00
11605;BME280;5858;43.076;25.626;2023-04-19T00:44:58;98738.22;;;10.38;100.00
11605;BME280;5858;43.076;25.626;2023-04-19T00:47:25;98847.31;;;11.05;100.00
11605;BME280;5858;43.076;25.626;2023-04-19T00:49:52;98699.63;;;10.19;100.00
11605;BME280;5858;43.076;25.626;2023-04-19T00:52:19;98628.59;;;9.75;100.00
11605;BME280;5858;43.076;25.626;2023-04-19T00:54:49;98694.38;;;10.04;100.00
11605;BME280;5858;43.076;25.626;2023-04-19T00:57:16;98734.09;;;10.35;100.00
11605;BME280;5858;43.076;25.626;2023-04-19T00:59:43;98736.97;;;10.34;100.00
11605;BME280;5858;43.076;25.626;2023-04-19T01:02:10;98803.47;;;10.71;100.00
11605;BME280;5858;43.076;25.626;2023-04-19T01:04:37;98582.41;;;9.47;100.00
11605;BME280;5858;43.076;25.626;2023-04-19T01:07:04;98699.25;;;10.22;100.00
11605;BME280;5858;43.076;25.626;2023-04-19T01:09:31;98746.31;;;10.45;100.00
11605;BME280;5858;43.076;25.626;2023-04-19T01:12:00;98749.19;;;10.43;100.00
11605;BME280;5858;43.076;25.626;2023-04-19T01:14:27;98838.03;;;11.01;100.00
11605;BME280;5858;43.076;25.626;2023-04-19T01:16:56;98805.34;;;10.78;100.00
11605;BME280;5858;43.076;25.626;2023-04-19T01:19:23;98659.34;;;9.93;100.00
11605;BME280;5858;43.076;25.626;2023-04-19T01:21:50;98730.75;;;10.27;100.00
11605;BME280;5858;43.076;25.626;2023-04-19T01:24:18;98658.63;;;9.77;100.00
11605;BME280;5858;43.076;25.626;2023-04-19T01:26:45;98703.91;;;10.14;100.00
11605;BME280;5858;43.076;25.626;2023-04-19T01:29:12;98859.66;;;10.99;100.00
11605;BME280;5858;43.076;25.626;2023-04-19T01:31:40;98845.22;;;10.94;100.00
11605;BME280;5858;43.076;25.626;2023-04-19T01:34:07;98802.19;;;10.61;100.00
11605;BME280;5858;43.076;25.626;2023-04-19T01:36:34;98841.31;;;10.96;100.00
11605;BME280;5858;43.076;25.626;2023-04-19T01:39:01;98799.81;;;10.79;100.00
11605;BME280;5858;43.076;25.626;2023-04-19T01:41:29;98796.69;;;10.41;100.00
11605;BME280;5858;43.076;25.626;2023-04-19T01:43:58;98817.13;;;10.83;100.00
11605;BME280;5858;43.076;25.626;2023-04-19T01:46:25;98788.81;;;10.61;100.00
11605;BME280;5858;43.076;25.626;2023-04-19T01:48:52;98775.16;;;10.49;100.00
11605;BME280;5858;43.076;25.626;2023-04-19T01:51:19;98711.88;;;10.07;100.00
11605;BME280;5858;43.076;25.626;2023-04-19T01:53:46;98796.34;;;10.51;100.00
11605;BME280;5858;43.076;25.626;2023-04-19T01:56:16;98771.59;;;10.42;100.00
11605;BME280;5858;43.076;25.626;2023-04-19T01:58:45;98672.25;;;9.89;100.00
11605;BME280;5858;43.076;25.626;2023-04-19T02:01:12;98513.13;;;8.90;100.00
11605;BME280;5858;43.076;25.626;2023-04-19T02:03:39;98770.63;;;10.22;100.00
11605;BME280;5858;43.076;25.626;2023-04-19T02:06:09;98820.34;;;10.72;100.00
11605;BME280;5858;43.076;25.626;2023-04-19T02:08:37;98769.44;;;10.31;100.00
11605;BME280;5858;43.076;25.626;2023-04-19T02:11:05;98781.31;;;10.50;100.00
11605;BME280;5858;43.076;25.626;2023-04-19T02:13:33;98749.69;;;10.04;100.00
11605;BME280;5858;43.076;25.626;2023-04-19T02:16:02;98643.13;;;9.66;100.00
11605;BME280;5858;43.076;25.626;2023-04-19T02:18:30;98684.16;;;9.87;100.00
11605;BME280;5858;43.076;25.626;2023-04-19T02:20:58;98682.72;;;9.84;100.00
11605;BME280;5858;43.076;25.626;2023-04-19T02:23:25;98787.31;;;10.52;100.00
11605;BME280;5858;43.076;25.626;2023-04-19T02:25:52;98828.97;;;10.67;100.00
11605;BME280;5858;43.076;25.626;2023-04-19T02:28:19;98577.75;;;9.06;100.00
11605;BME280;5858;43.076;25.626;2023-04-19T02:30:46;98813.34;;;10.71;100.00
11605;BME280;5858;43.076;25.626;2023-04-19T02:33:14;98631.97;;;9.56;100.00
11605;BME280;5858;43.076;25.626;2023-04-19T02:35:41;98647.94;;;9.50;100.00
11605;BME280;5858;43.076;25.626;2023-04-19T02:38:08;98537.31;;;9.09;100.00
11605;BME280;5858;43.076;25.626;2023-04-19T02:40:35;98819.97;;;10.75;100.00
11605;BME280;5858;43.076;25.626;2023-04-19T02:43:02;98739.72;;;10.40;100.00
11605;BME280;5858;43.076;25.626;2023-04-19T02:45:29;98732.53;;;10.20;100.00
11605;BME280;5858;43.076;25.626;2023-04-19T02:47:56;98635.34;;;9.71;100.00
11605;BME280;5858;43.076;25.626;2023-04-19T02:50:26;98795.47;;;10.78;100.00
11605;BME280;5858;43.076;25.626;2023-04-19T02:52:53;98773.00;;;10.72;100.00
11605;BME280;5858;43.076;25.626;2023-04-19T02:55:20;98791.34;;;10.76;100.00
11605;BME280;5858;43.076;25.626;2023-04-19T02:57:47;98643.03;;;9.81;100.00
11605;BME280;5858;43.076;25.626;2023-04-19T03:00:16;98763.00;;;10.47;100.00
11605;BME280;5858;43.076;25.626;2023-04-19T03:02:43;98779.56;;;10.63;100.00
11605;BME280;5858;43.076;25.626;2023-04-19T03:05:10;98787.63;;;10.70;100.00
11605;BME280;5858;43.076;25.626;2023-04-19T03:07:38;98662.41;;;9.90;100.00
11605;BME280;5858;43.076;25.626;2023-04-19T03:10:07;98711.59;;;10.23;100.00
11605;BME280;5858;43.076;25.626;2023-04-19T03:12:34;98755.22;;;10.52;100.00
11605;BME280;5858;43.076;25.626;2023-04-19T03:15:01;98797.31;;;10.78;100.00
11605;BME280;5858;43.076;25.626;2023-04-19T03:17:28;98754.97;;;10.47;100.00
11605;BME280;5858;43.076;25.626;2023-04-19T03:19:55;98689.53;;;10.15;100.00
11605;BME280;5858;43.076;25.626;2023-04-19T03:22:22;98662.16;;;9.85;100.00
11605;BME280;5858;43.076;25.626;2023-04-19T03:24:50;98678.03;;;9.93;100.00
11605;BME280;5858;43.076;25.626;2023-04-19T03:27:17;98611.94;;;9.45;100.00
11605;BME280;5858;43.076;25.626;2023-04-19T03:29:44;98667.44;;;9.50;100.00
11605;BME280;5858;43.076;25.626;2023-04-19T03:32:11;98804.19;;;10.52;100.00
11605;BME280;5858;43.076;25.626;2023-04-19T03:34:38;98824.06;;;10.71;100.00
11605;BME280;5858;43.076;25.626;2023-04-19T03:37:05;98804.72;;;10.41;100.00
11605;BME280;5858;43.076;25.626;2023-04-19T03:39:32;98614.00;;;9.22;100.00
11605;BME280;5858;43.076;25.626;2023-04-19T03:42:00;98836.88;;;10.48;100.00
11605;BME280;5858;43.076;25.626;2023-04-19T03:44:30;98765.72;;;10.25;100.00
11605;BME280;5858;43.076;25.626;2023-04-19T03:46:57;98634.59;;;9.50;100.00
11605;BME280;5858;43.076;25.626;2023-04-19T03:49:24;98789.13;;;10.45;100.00
11605;BME280;5858;43.076;25.626;2023-04-19T03:51:51;98842.53;;;10.66;100.00
11605;BME280;5858;43.076;25.626;2023-04-19T03:54:18;98717.47;;;10.12;100.00
11605;BME280;5858;43.076;25.626;2023-04-19T03:56:45;98739.41;;;10.29;100.00
11605;BME280;5858;43.076;25.626;2023-04-19T03:59:13;98725.53;;;10.19;100.00
11605;BME280;5858;43.076;25.626;2023-04-19T04:01:40;98660.56;;;9.62;100.00
11605;BME280;5858;43.076;25.626;2023-04-19T04:04:07;98655.22;;;9.41;100.00
11605;BME280;5858;43.076;25.626;2023-04-19T04:06:34;98793.31;;;10.32;100.00
11605;BME280;5858;43.076;25.626;2023-04-19T04:09:01;98724.56;;;9.98;100.00
11605;BME280;5858;43.076;25.626;2023-04-19T04:11:29;98719.03;;;9.78;100.00
11605;BME280;5858;43.076;25.626;2023-04-19T04:13:56;98839.19;;;10.57;100.00
11605;BME280;5858;43.076;25.626;2023-04-19T04:16:24;98607.69;;;9.30;100.00
11605;BME280;5858;43.076;25.626;2023-04-19T04:18:51;98738.88;;;9.91;100.00
11605;BME280;5858;43.076;25.626;2023-04-19T04:21:18;98757.38;;;10.14;100.00
11605;BME280;5858;43.076;25.626;2023-04-19T04:23:45;98657.66;;;9.57;100.00
11605;BME280;5858;43.076;25.626;2023-04-19T04:26:14;98805.03;;;10.59;100.00
11605;BME280;5858;43.076;25.626;2023-04-19T04:28:41;98780.81;;;10.39;100.00
11605;BME280;5858;43.076;25.626;2023-04-19T04:31:08;98604.97;;;9.23;100.00
11605;BME280;5858;43.076;25.626;2023-04-19T04:33:38;98728.13;;;10.05;100.00
11605;BME280;5858;43.076;25.626;2023-04-19T04:36:06;98799.19;;;10.43;100.00
11605;BME280;5858;43.076;25.626;2023-04-19T04:38:36;98721.72;;;9.78;100.00
11605;BME280;5858;43.076;25.626;2023-04-19T04:41:03;98577.50;;;9.01;100.00
11605;BME280;5858;43.076;25.626;2023-04-19T04:43:30;98800.72;;;10.58;100.00
11605;BME280;5858;43.076;25.626;2023-04-19T04:46:03;98688.34;;;9.68;100.00
11605;BME280;5858;43.076;25.626;2023-04-19T04:48:30;98662.94;;;9.51;100.00
11605;BME280;5858;43.076;25.626;2023-04-19T04:50:59;98589.19;;;9.00;100.00
11605;BME280;5858;43.076;25.626;2023-04-19T04:53:27;98768.44;;;10.32;100.00
11605;BME280;5858;43.076;25.626;2023-04-19T04:55:54;98836.13;;;10.60;100.00
11605;BME280;5858;43.076;25.626;2023-04-19T04:58:21;98796.56;;;10.28;100.00
11605;BME280;5858;43.076;25.626;2023-04-19T05:00:49;98785.25;;;10.26;100.00
11605;BME280;5858;43.076;25.626;2023-04-19T05:03:16;98579.94;;;8.81;100.00
11605;BME280;5858;43.076;25.626;2023-04-19T05:05:44;98858.69;;;10.51;100.00
11605;BME280;5858;43.076;25.626;2023-04-19T05:08:16;98877.63;;;10.50;100.00
11605;BME280;5858;43.076;25.626;2023-04-19T05:10:43;98691.22;;;9.45;100.00
11605;BME280;5858;43.076;25.626;2023-04-19T05:13:10;98532.38;;;8.64;100.00
11605;BME280;5858;43.076;25.626;2023-04-19T05:15:38;98720.97;;;9.63;100.00
11605;BME280;5858;43.076;25.626;2023-04-19T05:18:05;98698.00;;;9.26;100.00
11605;BME280;5858;43.076;25.626;2023-04-19T05:20:38;98694.69;;;9.03;100.00
11605;BME280;5858;43.076;25.626;2023-04-19T05:23:05;98786.59;;;9.72;100.00
11605;BME280;5858;43.076;25.626;2023-04-19T05:25:34;98594.56;;;8.49;100.00
11605;BME280;5858;43.076;25.626;2023-04-19T05:28:01;98694.38;;;9.12;100.00
11605;BME280;5858;43.076;25.626;2023-04-19T05:30:29;98884.22;;;10.11;100.00
11605;BME280;5858;43.076;25.626;2023-04-19T05:32:56;98662.44;;;8.83;100.00
11605;BME280;5858;43.076;25.626;2023-04-19T05:35:29;98749.63;;;9.33;100.00
11605;BME280;5858;43.076;25.626;2023-04-19T05:37:56;98862.47;;;10.14;100.00
11605;BME280;5858;43.076;25.626;2023-04-19T05:40:23;98878.19;;;10.02;100.00
11605;BME280;5858;43.076;25.626;2023-04-19T05:42:51;98600.28;;;8.32;100.00
11605;BME280;5858;43.076;25.626;2023-04-19T05:45:20;98708.56;;;8.98;100.00
11605;BME280;5858;43.076;25.626;2023-04-19T05:47:49;98821.84;;;9.83;100.00
11605;BME280;5858;43.076;25.626;2023-04-19T05:50:17;98773.53;;;9.41;100.00
11605;BME280;5858;43.076;25.626;2023-04-19T05:52:45;98697.38;;;8.88;100.00
11605;BME280;5858;43.076;25.626;2023-04-19T05:55:12;98805.19;;;9.81;100.00
11605;BME280;5858;43.076;25.626;2023-04-19T05:57:39;98874.91;;;10.22;100.00
11605;BME280;5858;43.076;25.626;2023-04-19T06:00:10;98796.91;;;9.75;100.00
11605;BME280;5858;43.076;25.626;2023-04-19T06:02:38;98749.31;;;9.43;100.00
11605;BME280;5858;43.076;25.626;2023-04-19T06:05:05;98883.00;;;10.14;100.00
11605;BME280;5858;43.076;25.626;2023-04-19T06:07:33;98836.38;;;9.95;100.00
11605;BME280;5858;43.076;25.626;2023-04-19T06:10:00;98806.59;;;9.76;100.00
11605;BME280;5858;43.076;25.626;2023-04-19T06:12:27;98795.78;;;9.63;100.00
11605;BME280;5858;43.076;25.626;2023-04-19T06:14:55;98905.13;;;10.22;100.00
11605;BME280;5858;43.076;25.626;2023-04-19T06:17:23;98825.28;;;9.55;100.00
11605;BME280;5858;43.076;25.626;2023-04-19T06:19:50;98842.91;;;9.92;100.00
11605;BME280;5858;43.076;25.626;2023-04-19T06:22:17;98849.97;;;9.78;100.00
11605;BME280;5858;43.076;25.626;2023-04-19T06:24:45;98733.16;;;9.08;100.00
11605;BME280;5858;43.076;25.626;2023-04-19T06:27:15;98920.38;;;10.43;100.00
11605;BME280;5858;43.076;25.626;2023-04-19T06:29:45;98723.06;;;9.25;100.00
11605;BME280;5858;43.076;25.626;2023-04-19T06:32:12;98643.56;;;8.63;100.00
11605;BME280;5858;43.076;25.626;2023-04-19T06:34:43;98767.00;;;9.08;100.00
11605;BME280;5858;43.076;25.626;2023-04-19T06:37:10;98755.03;;;9.19;100.00
11605;BME280;5858;43.076;25.626;2023-04-19T06:39:37;98709.25;;;9.00;100.00
11605;BME280;5858;43.076;25.626;2023-04-19T06:42:04;98890.34;;;10.05;100.00
11605;BME280;5858;43.076;25.626;2023-04-19T06:44:32;98671.84;;;8.79;100.00
11605;BME280;5858;43.076;25.626;2023-04-19T06:46:59;98914.19;;;10.43;100.00
11605;BME280;5858;43.076;25.626;2023-04-19T06:49:26;98916.38;;;10.39;100.00
11605;BME280;5858;43.076;25.626;2023-04-19T06:51:57;98945.31;;;10.50;100.00
11605;BME280;5858;43.076;25.626;2023-04-19T06:54:24;98769.75;;;9.51;100.00
11605;BME280;5858;43.076;25.626;2023-04-19T06:57:03;98921.31;;;10.57;100.00
11605;BME280;5858;43.076;25.626;2023-04-19T06:59:30;98938.91;;;10.72;100.00
11605;BME280;5858;43.076;25.626;2023-04-19T07:01:58;98671.25;;;9.20;100.00
11605;BME280;5858;43.076;25.626;2023-04-19T07:04:25;98932.09;;;10.70;100.00
11605;BME280;5858;43.076;25.626;2023-04-19T07:06:54;98725.88;;;9.60;100.00
11605;BME280;5858;43.076;25.626;2023-04-19T07:09:21;98733.00;;;9.53;100.00
11605;BME280;5858;43.076;25.626;2023-04-19T07:11:48;98706.97;;;9.40;100.00
11605;BME280;5858;43.076;25.626;2023-04-19T07:14:15;98939.00;;;10.86;100.00
11605;BME280;5858;43.076;25.626;2023-04-19T07:16:43;98815.25;;;10.21;100.00
11605;BME280;5858;43.076;25.626;2023-04-19T07:19:11;98937.28;;;10.99;100.00
11605;BME280;5858;43.076;25.626;2023-04-19T07:21:38;98757.47;;;9.77;100.00
11605;BME280;5858;43.076;25.626;2023-04-19T07:24:07;98767.13;;;10.00;100.00
11605;BME280;5858;43.076;25.626;2023-04-19T07:26:34;98962.13;;;11.21;100.00
11605;BME280;5858;43.076;25.626;2023-04-19T07:29:01;98890.00;;;10.85;100.00
11605;BME280;5858;43.076;25.626;2023-04-19T07:31:29;98812.56;;;10.43;100.00
11605;BME280;5858;43.076;25.626;2023-04-19T07:33:56;98901.81;;;10.91;100.00
11605;BME280;5858;43.076;25.626;2023-04-19T07:36:23;98949.41;;;11.30;100.00
11605;BME280;5858;43.076;25.626;2023-04-19T07:38:50;98887.22;;;10.93;100.00
11605;BME280;5858;43.076;25.626;2023-04-19T07:41:19;98892.00;;;11.04;100.00
11605;BME280;5858;43.076;25.626;2023-04-19T07:43:46;98926.09;;;11.24;100.00
11605;BME280;5858;43.076;25.626;2023-04-19T07:46:14;98659.84;;;9.75;100.00
11605;BME280;5858;43.076;25.626;2023-04-19T07:48:44;98762.25;;;10.31;100.00
11605;BME280;5858;43.076;25.626;2023-04-19T07:51:24;98776.09;;;10.69;100.00
11605;BME280;5858;43.076;25.626;2023-04-19T07:53:54;98833.78;;;11.13;100.00
11605;BME280;5858;43.076;25.626;2023-04-19T07:56:23;98884.81;;;11.46;100.00
11605;BME280;5858;43.076;25.626;2023-04-19T07:58:50;98875.56;;;11.49;100.00
11605;BME280;5858;43.076;25.626;2023-04-19T08:01:17;98856.38;;;11.45;100.00
11605;BME280;5858;43.076;25.626;2023-04-19T08:03:48;98920.69;;;11.86;100.00
11605;BME280;5858;43.076;25.626;2023-04-19T08:06:16;98763.97;;;10.73;100.00
11605;BME280;5858;43.076;25.626;2023-04-19T08:08:43;98970.06;;;11.77;100.00
11605;BME280;5858;43.076;25.626;2023-04-19T08:11:11;98904.78;;;11.37;100.00
11605;BME280;5858;43.076;25.626;2023-04-19T08:13:39;98862.03;;;11.22;100.00
11605;BME280;5858;43.076;25.626;2023-04-19T08:16:07;98868.88;;;11.31;100.00
11605;BME280;5858;43.076;25.626;2023-04-19T08:18:40;98706.13;;;10.38;100.00
11605;BME280;5858;43.076;25.626;2023-04-19T08:21:10;98693.38;;;10.40;100.00
11605;BME280;5858;43.076;25.626;2023-04-19T08:23:37;98749.59;;;10.81;100.00
11605;BME280;5858;43.076;25.626;2023-04-19T08:26:05;98852.47;;;11.48;100.00
11605;BME280;5858;43.076;25.626;2023-04-19T08:28:36;98932.13;;;12.28;100.00
11605;BME280;5858;43.076;25.626;2023-04-19T08:31:07;98798.91;;;11.61;100.00
11605;BME280;5858;43.076;25.626;2023-04-19T08:33:35;98878.91;;;12.45;100.00
11605;BME280;5858;43.076;25.626;2023-04-19T08:36:02;98896.66;;;12.66;97.90
11605;BME280;5858;43.076;25.626;2023-04-19T08:38:29;98726.97;;;11.58;98.76
11605;BME280;5858;43.076;25.626;2023-04-19T08:40:56;98889.03;;;12.63;98.71
11605;BME280;5858;43.076;25.626;2023-04-19T08:43:24;98904.09;;;12.83;99.87
11605;BME280;5858;43.076;25.626;2023-04-19T08:45:53;98928.22;;;13.10;100.00
11605;BME280;5858;43.076;25.626;2023-04-19T08:48:24;98903.69;;;12.67;97.76
11605;BME280;5858;43.076;25.626;2023-04-19T08:50:53;98843.41;;;12.56;99.19
11605;BME280;5858;43.076;25.626;2023-04-19T08:53:22;98910.50;;;12.89;98.75
11605;BME280;5858;43.076;25.626;2023-04-19T08:55:49;98797.38;;;12.06;97.59
11605;BME280;5858;43.076;25.626;2023-04-19T08:58:18;98898.09;;;12.75;97.50
11605;BME280;5858;43.076;25.626;2023-04-19T09:00:45;98886.53;;;12.94;97.22
11605;BME280;5858;43.076;25.626;2023-04-19T09:03:12;98860.69;;;13.06;98.62
11605;BME280;5858;43.076;25.626;2023-04-19T09:05:41;98795.06;;;12.82;95.85
11605;BME280;5858;43.076;25.626;2023-04-19T09:08:22;98889.69;;;14.00;96.48
11605;BME280;5858;43.076;25.626;2023-04-19T09:10:55;98900.47;;;14.00;91.72
11605;BME280;5858;43.076;25.626;2023-04-19T09:13:23;98714.84;;;12.99;92.00
11605;BME280;5858;43.076;25.626;2023-04-19T09:15:51;98810.91;;;13.55;92.14
11605;BME280;5858;43.076;25.626;2023-04-19T09:18:23;98895.91;;;14.01;95.27
11605;BME280;5858;43.076;25.626;2023-04-19T09:20:52;98870.03;;;14.00;93.10
11605;BME280;5858;43.076;25.626;2023-04-19T09:23:22;98904.59;;;14.03;93.71
11605;BME280;5858;43.076;25.626;2023-04-19T09:25:52;98882.72;;;13.93;89.74
11605;BME280;5858;43.076;25.626;2023-04-19T09:28:21;98931.41;;;14.23;91.79
11605;BME280;5858;43.076;25.626;2023-04-19T09:30:48;98708.88;;;12.97;89.36
11605;BME280;5858;43.076;25.626;2023-04-19T09:33:30;98935.81;;;14.42;89.42
11605;BME280;5858;43.076;25.626;2023-04-19T09:35:59;98860.22;;;14.12;91.15
11605;BME280;5858;43.076;25.626;2023-04-19T09:38:32;98710.34;;;12.93;90.77
11605;BME280;5858;43.076;25.626;2023-04-19T09:41:17;98806.28;;;13.69;89.36
11605;BME280;5858;43.076;25.626;2023-04-19T09:43:45;98776.28;;;14.03;90.05
11605;BME280;5858;43.076;25.626;2023-04-19T09:46:30;98929.22;;;14.94;87.11
11605;BME280;5858;43.076;25.626;2023-04-19T09:49:18;98930.66;;;14.97;87.64
11605;BME280;5858;43.076;25.626;2023-04-19T09:51:48;98881.91;;;14.24;88.42
11605;BME280;5858;43.076;25.626;2023-04-19T09:54:19;98851.50;;;14.16;88.87
11605;BME280;5858;43.076;25.626;2023-04-19T09:56:47;98837.44;;;14.21;88.13
11605;BME280;5858;43.076;25.626;2023-04-19T09:59:15;98807.31;;;14.06;88.19
11605;BME280;5858;43.076;25.626;2023-04-19T10:01:44;98935.06;;;14.66;89.88
11605;BME280;5858;43.076;25.626;2023-04-19T10:04:13;98923.50;;;14.28;90.25
11605;BME280;5858;43.076;25.626;2023-04-19T10:06:48;98823.84;;;13.71;91.53
11605;BME280;5858;43.076;25.626;2023-04-19T10:09:17;98918.31;;;14.26;92.57
11605;BME280;5858;43.076;25.626;2023-04-19T10:11:47;98813.00;;;13.53;92.75
11605;BME280;5858;43.076;25.626;2023-04-19T10:14:16;98879.75;;;14.01;92.75
11605;BME280;5858;43.076;25.626;2023-04-19T10:16:43;98884.41;;;14.18;92.02
11605;BME280;5858;43.076;25.626;2023-04-19T10:19:11;98900.06;;;14.66;91.69
11605;BME280;5858;43.076;25.626;2023-04-19T10:21:40;98930.72;;;15.15;92.00
11605;BME280;5858;43.076;25.626;2023-04-19T10:24:12;98875.31;;;14.76;85.77
11605;BME280;5858;43.076;25.626;2023-04-19T10:29:54;98847.19;;;14.72;85.16
11605;BME280;5858;43.076;25.626;2023-04-19T10:32:26;98938.22;;;15.06;85.70
11605;BME280;5858;43.076;25.626;2023-04-19T10:34:53;98846.91;;;14.55;85.78
11605;BME280;5858;43.076;25.626;2023-04-19T10:37:26;98868.13;;;14.45;86.34
11605;BME280;5858;43.076;25.626;2023-04-19T10:39:55;98860.78;;;14.27;87.46
11605;BME280;5858;43.076;25.626;2023-04-19T10:45:50;98902.34;;;14.88;88.16
11605;BME280;5858;43.076;25.626;2023-04-19T10:48:37;98923.47;;;14.91;85.91
11605;BME280;5858;43.076;25.626;2023-04-19T10:51:15;98822.34;;;14.45;84.80
11605;BME280;5858;43.076;25.626;2023-04-19T10:53:48;98795.47;;;14.38;79.46
11605;BME280;5858;43.076;25.626;2023-04-19T10:56:58;98818.09;;;14.56;79.62
11605;BME280;5858;43.076;25.626;2023-04-19T10:59:33;98672.59;;;13.82;80.87
11605;BME280;5858;43.076;25.626;2023-04-19T11:02:02;98908.88;;;15.60;79.11
11605;BME280;5858;43.076;25.626;2023-04-19T11:04:58;98921.00;;;15.32;80.98
11605;BME280;5858;43.076;25.626;2023-04-19T11:07:38;98820.34;;;14.59;79.70
11605;BME280;5858;43.076;25.626;2023-04-19T11:10:09;98915.31;;;15.22;78.41
11605;BME280;5858;43.076;25.626;2023-04-19T11:12:45;98675.28;;;13.82;80.21
11605;BME280;5858;43.076;25.626;2023-04-19T11:15:12;98753.41;;;14.44;76.13
11605;BME280;5858;43.076;25.626;2023-04-19T11:17:39;98907.06;;;15.90;76.11
11605;BME280;5858;43.076;25.626;2023-04-19T11:20:08;98847.78;;;15.84;75.74
11605;BME280;5858;43.076;25.626;2023-04-19T11:22:45;98812.22;;;15.57;73.96
11605;BME280;5858;43.076;25.626;2023-04-19T11:25:16;98855.47;;;15.98;73.10
11605;BME280;5858;43.076;25.626;2023-04-19T11:27:47;98714.22;;;15.21;71.71
11605;BME280;5858;43.076;25.626;2023-04-19T11:30:16;98808.38;;;15.83;69.00
11605;BME280;5858;43.076;25.626;2023-04-19T11:33:01;98849.53;;;15.78;72.50
11605;BME280;5858;43.076;25.626;2023-04-19T11:35:30;98744.38;;;15.11;74.69
11605;BME280;5858;43.076;25.626;2023-04-19T11:38:02;98777.72;;;15.47;74.60
11605;BME280;5858;43.076;25.626;2023-04-19T11:40:36;98745.00;;;15.43;72.52
11605;BME280;5858;43.076;25.626;2023-04-19T11:43:12;98663.94;;;15.27;72.09
11605;BME280;5858;43.076;25.626;2023-04-19T11:45:42;98883.75;;;16.79;69.74
11605;BME280;5858;43.076;25.626;2023-04-19T11:48:13;98762.25;;;16.14;69.71
11605;BME280;5858;43.076;25.626;2023-04-19T11:50:41;98684.63;;;15.86;65.49
11605;BME280;5858;43.076;25.626;2023-04-19T11:53:13;98794.94;;;16.83;68.04
11605;BME280;5858;43.076;25.626;2023-04-19T11:55:42;98761.94;;;16.69;67.67
11605;BME280;5858;43.076;25.626;2023-04-19T11:58:24;98786.03;;;16.71;67.39
11605;BME280;5858;43.076;25.626;2023-04-19T12:00:53;98855.84;;;17.37;67.46
11605;BME280;5858;43.076;25.626;2023-04-19T12:03:21;98819.25;;;16.83;67.43
11605;BME280;5858;43.076;25.626;2023-04-19T12:05:53;98822.84;;;16.42;68.23
11605;BME280;5858;43.076;25.626;2023-04-19T12:08:30;98728.38;;;15.77;66.94
11605;BME280;5858;43.076;25.626;2023-04-19T12:10:58;98854.25;;;16.78;68.08
11605;BME280;5858;43.076;25.626;2023-04-19T12:13:27;98777.31;;;16.57;67.01
11605;BME280;5858;43.076;25.626;2023-04-19T12:15:55;98804.56;;;16.79;65.02
11605;BME280;5858;43.076;25.626;2023-04-19T12:18:41;98655.41;;;15.71;64.26
11605;BME280;5858;43.076;25.626;2023-04-19T12:21:10;98760.97;;;16.28;65.05
11605;BME280;5858;43.076;25.626;2023-04-19T12:23:37;98680.41;;;15.90;67.23
11605;BME280;5858;43.076;25.626;2023-04-19T12:26:05;98775.91;;;16.66;66.92
11605;BME280;5858;43.076;25.626;2023-04-19T12:28:34;98810.28;;;16.35;65.98
11605;BME280;5858;43.076;25.626;2023-04-19T12:31:01;98822.25;;;16.51;65.84
11605;BME280;5858;43.076;25.626;2023-04-19T12:33:28;98839.69;;;16.67;65.74
11605;BME280;5858;43.076;25.626;2023-04-19T12:35:55;98772.50;;;15.82;67.22
11605;BME280;5858;43.076;25.626;2023-04-19T12:38:22;98735.19;;;15.79;69.33
11605;BME280;5858;43.076;25.626;2023-04-19T12:40:50;98677.22;;;15.40;69.68
11605;BME280;5858;43.076;25.626;2023-04-19T12:43:17;98600.69;;;14.99;68.98
11605;BME280;5858;43.076;25.626;2023-04-19T12:45:46;98785.25;;;16.28;70.42
11605;BME280;5858;43.076;25.626;2023-04-19T12:48:13;98740.97;;;16.06;69.09
11605;BME280;5858;43.076;25.626;2023-04-19T12:50:40;98722.78;;;15.60;69.29
11605;BME280;5858;43.076;25.626;2023-04-19T12:53:11;98652.25;;;15.63;68.75
11605;BME280;5858;43.076;25.626;2023-04-19T12:55:39;98828.75;;;16.62;69.69
11605;BME280;5858;43.076;25.626;2023-04-19T12:58:11;98774.16;;;16.72;70.36
11605;BME280;5858;43.076;25.626;2023-04-19T13:00:41;98629.03;;;15.97;66.71
11605;BME280;5858;43.076;25.626;2023-04-19T13:03:10;98786.56;;;17.08;66.20
11605;BME280;5858;43.076;25.626;2023-04-19T13:05:38;98646.78;;;16.16;68.62
11605;BME280;5858;43.076;25.626;2023-04-19T13:08:05;98756.63;;;16.86;66.73
11605;BME280;5858;43.076;25.626;2023-04-19T13:10:32;98709.31;;;16.60;65.18